Weather at Allentown Queen City Municipal Airport

Public forecast

Using degrees Fahrenheit for public forecast. Weather courtesy of forecast.io.

Current aviation weather report (METAR) for Allentown Queen City Municipal Airport

Retrieved 2020/09/25 05:35 UTC (18 minutes ago):

KXLL 250535Z AUTO 00000KT 4SM BR CLR 13/13 A3005 RMK AO2

Closest aviation forecast (TAF) to Allentown Queen City Municipal Airport

Closest forecast is Lehigh Valley International Airport, 5.4 nm (9.9 km) NNE. Retrieved 2020-09-25 00:24 UTC (5 hours ago):

TAF KABE 242321Z 2500/2524 VRB03KT P6SM SCT250 FM250800 VRB03KT 4SM BR SCT250 FM251300 21004KT P6SM SCT250